createdAt,value
2024-04-24T00:00:57.945Z,101406.34
2024-04-24T00:03:24.740Z,101404.09
2024-04-24T00:05:51.414Z,101401.84
2024-04-24T00:08:18.042Z,101394.31
2024-04-24T00:10:44.777Z,101396.22
2024-04-24T00:13:12.158Z,101392.81
2024-04-24T00:15:38.746Z,101393.91
2024-04-24T00:18:05.597Z,101394.28
2024-04-24T00:20:32.200Z,101392.03
2024-04-24T00:22:58.839Z,101389.78
2024-04-24T00:25:25.466Z,101392.41
2024-04-24T00:27:57.245Z,101393.16
2024-04-24T00:30:24.500Z,101391.28
2024-04-24T00:32:51.158Z,101393.91
2024-04-24T00:35:17.859Z,101389.78
2024-04-24T00:37:44.531Z,101389.00
2024-04-24T00:40:11.262Z,101373.97
2024-04-24T00:42:37.862Z,101363.44
2024-04-24T00:45:04.892Z,101361.56
2024-04-24T00:47:32.604Z,101350.66
2024-04-24T00:50:01.817Z,101347.66
2024-04-24T00:52:29.739Z,101349.16
2024-04-24T00:54:56.384Z,101347.25
2024-04-24T00:57:23.172Z,101344.63
2024-04-24T00:59:49.821Z,101328.84
2024-04-24T01:02:16.682Z,101331.88
2024-04-24T01:04:43.519Z,101323.56
2024-04-24T01:07:10.185Z,101319.47
2024-04-24T01:09:36.825Z,101321.34
2024-04-24T01:12:03.683Z,101315.31
2024-04-24T01:14:30.437Z,101316.44
2024-04-24T01:16:58.562Z,101322.81
2024-04-24T01:19:41.011Z,101320.94
2024-04-24T01:22:32.673Z,101315.69
2024-04-24T01:25:06.791Z,101312.69
2024-04-24T01:27:33.513Z,101312.31
2024-04-24T01:30:00.521Z,101314.19
2024-04-24T01:32:27.277Z,101314.19
2024-04-24T01:34:53.945Z,101307.00
2024-04-24T01:37:20.527Z,101304.38
2024-04-24T01:39:47.119Z,101301.41
2024-04-24T01:42:14.683Z,101299.53
2024-04-24T01:44:44.013Z,101296.91
2024-04-24T01:47:10.862Z,101287.84
2024-04-24T01:49:37.615Z,101292.38
2024-04-24T01:52:04.242Z,101281.13
2024-04-24T01:54:30.841Z,101286.38
2024-04-24T01:56:57.390Z,101279.94
2024-04-24T01:59:24.038Z,101274.69
2024-04-24T02:01:50.831Z,101277.69
2024-04-24T02:04:17.448Z,101274.69
2024-04-24T02:06:46.924Z,101273.16
2024-04-24T02:09:13.514Z,101264.53
2024-04-24T02:11:40.330Z,101264.53
2024-04-24T02:14:07.183Z,101274.28
2024-04-24T02:16:33.974Z,101266.78
2024-04-24T02:19:00.992Z,101260.03
2024-04-24T02:21:27.630Z,101252.88
2024-04-24T02:23:55.318Z,101253.63
2024-04-24T02:26:29.530Z,101252.50
2024-04-24T02:28:56.310Z,101247.97
2024-04-24T02:31:25.785Z,101246.84
2024-04-24T02:33:52.590Z,101258.50
2024-04-24T02:36:19.251Z,101247.97
2024-04-24T02:38:45.839Z,101244.22
2024-04-24T02:41:12.458Z,101243.09
2024-04-24T02:43:39.284Z,101231.84
2024-04-24T02:46:05.859Z,101229.56
2024-04-24T02:48:32.547Z,101223.19
2024-04-24T02:50:59.202Z,101224.31
2024-04-24T02:53:25.800Z,101218.69
2024-04-24T02:55:52.418Z,101219.03
2024-04-24T02:58:19.023Z,101220.91
2024-04-24T03:00:45.780Z,101209.28
2024-04-24T03:03:12.625Z,101213.03
2024-04-24T03:05:39.292Z,101203.66
2024-04-24T03:08:06.171Z,101201.75
2024-04-24T03:10:32.769Z,101202.91
2024-04-24T03:12:59.379Z,101196.50
2024-04-24T03:15:25.957Z,101194.94
2024-04-24T03:17:52.681Z,101197.22
2024-04-24T03:20:19.433Z,101190.09
2024-04-24T03:22:46.090Z,101189.69
2024-04-24T03:25:12.836Z,101187.47
2024-04-24T03:27:39.454Z,101192.31
2024-04-24T03:30:06.713Z,101175.44
2024-04-24T03:32:33.425Z,101169.78
2024-04-24T03:35:00.165Z,101172.81
2024-04-24T03:37:27.255Z,101168.66
2024-04-24T03:39:53.833Z,101162.28
2024-04-24T03:42:20.457Z,101156.66
2024-04-24T03:44:47.040Z,101154.75
2024-04-24T03:47:13.814Z,101154.75
2024-04-24T03:49:40.484Z,101160.41
2024-04-24T03:52:07.079Z,101157.75
2024-04-24T03:54:33.647Z,101156.25
2024-04-24T03:57:00.264Z,101148.00
2024-04-24T03:59:26.972Z,101143.84
2024-04-24T04:01:53.611Z,101143.47
2024-04-24T04:04:20.385Z,101135.97
2024-04-24T04:06:46.988Z,101135.59
2024-04-24T04:09:13.613Z,101135.97
2024-04-24T04:11:40.409Z,101135.97
2024-04-24T04:14:07.088Z,101138.59
2024-04-24T04:16:33.717Z,101127.31
2024-04-24T04:19:00.483Z,101122.06
2024-04-24T04:21:27.040Z,101127.31
2024-04-24T04:23:53.723Z,101123.94
2024-04-24T04:26:20.407Z,101115.28
2024-04-24T04:28:47.107Z,101117.16
2024-04-24T04:31:14.790Z,101113.78
2024-04-24T04:33:41.529Z,101118.28
2024-04-24T04:36:08.760Z,101114.53
2024-04-24T04:38:35.403Z,101114.53
2024-04-24T04:41:02.075Z,101115.28
2024-04-24T04:43:28.678Z,101111.16
2024-04-24T04:45:55.597Z,101119.03
2024-04-24T04:48:22.351Z,101120.19
2024-04-24T04:50:49.041Z,101117.56
2024-04-24T04:53:15.740Z,101117.91
2024-04-24T04:55:42.506Z,101118.28
2024-04-24T04:58:09.377Z,101119.44
2024-04-24T05:00:35.977Z,101120.53
2024-04-24T05:03:02.716Z,101120.53
2024-04-24T05:05:29.395Z,101117.16
2024-04-24T05:07:56.042Z,101104.00
2024-04-24T05:10:22.675Z,101106.28
2024-04-24T05:12:49.456Z,101106.63
2024-04-24T05:15:16.146Z,101098.75
2024-04-24T05:17:42.804Z,101100.63
2024-04-24T05:20:09.761Z,101091.22
2024-04-24T05:22:48.334Z,101099.91
2024-04-24T05:25:17.714Z,101094.25
2024-04-24T05:28:03.472Z,101089.38
2024-04-24T05:30:31.038Z,101091.97
2024-04-24T05:32:58.003Z,101090.47
2024-04-24T05:35:24.650Z,101084.47
2024-04-24T05:37:53.100Z,101086.38
2024-04-24T05:40:20.818Z,101084.09
2024-04-24T05:42:47.638Z,101084.09
2024-04-24T05:45:14.683Z,101083.34
2024-04-24T05:47:41.732Z,101082.97
2024-04-24T05:50:08.668Z,101077.34
2024-04-24T05:52:35.439Z,101076.19
2024-04-24T05:55:03.078Z,101078.06
2024-04-24T05:57:30.557Z,101077.34
2024-04-24T05:59:57.447Z,101073.16
2024-04-24T06:02:24.320Z,101072.03
2024-04-24T06:04:52.148Z,101073.16
2024-04-24T06:07:19.014Z,101063.38
2024-04-24T06:09:45.832Z,101059.63
2024-04-24T06:12:12.598Z,101062.28
2024-04-24T06:14:39.244Z,101061.88
2024-04-24T06:17:06.069Z,101058.50
2024-04-24T06:19:32.689Z,101054.00
2024-04-24T06:21:59.873Z,101050.22
2024-04-24T06:24:26.538Z,101044.59
2024-04-24T06:26:53.257Z,101045.72
2024-04-24T06:29:20.070Z,101041.19
2024-04-24T06:31:46.850Z,101045.69
2024-04-24T06:34:13.510Z,101044.56
2024-04-24T06:36:40.105Z,101040.81
2024-04-24T06:39:06.730Z,101040.06
2024-04-24T06:41:36.376Z,101043.84
2024-04-24T06:44:03.089Z,101041.56
2024-04-24T06:46:30.846Z,101040.06
2024-04-24T06:48:57.433Z,101033.31
2024-04-24T06:51:24.372Z,101025.00
2024-04-24T06:53:52.498Z,101036.66
2024-04-24T06:56:19.222Z,101028.00
2024-04-24T06:58:45.881Z,101029.50
2024-04-24T07:01:12.675Z,101027.22
2024-04-24T07:03:39.660Z,101017.78
2024-04-24T07:06:06.614Z,101014.00
2024-04-24T07:08:33.700Z,101007.19
2024-04-24T07:11:00.435Z,101010.91
2024-04-24T07:13:27.767Z,101017.72
2024-04-24T07:15:54.450Z,101008.66
2024-04-24T07:18:21.194Z,101011.31
2024-04-24T07:20:47.959Z,101009.44
2024-04-24T07:23:16.842Z,100997.81
2024-04-24T07:25:46.641Z,100999.28
2024-04-24T07:28:13.281Z,101001.91
2024-04-24T07:30:39.862Z,101002.69
2024-04-24T07:33:07.130Z,101006.09
2024-04-24T07:35:33.813Z,100996.66
2024-04-24T07:38:00.574Z,100995.56
2024-04-24T07:40:27.236Z,100998.19
2024-04-24T07:42:53.913Z,101005.00
2024-04-24T07:45:20.739Z,101000.09
2024-04-24T07:47:47.626Z,101002.00
2024-04-24T07:50:14.495Z,100992.59
2024-04-24T07:52:41.117Z,100997.84
2024-04-24T07:55:07.685Z,101001.28
2024-04-24T07:57:34.381Z,101014.06
2024-04-24T08:00:01.024Z,101021.97
2024-04-24T08:02:28.734Z,101012.19
2024-04-24T08:04:55.629Z,101019.34
2024-04-24T08:07:22.366Z,101021.22
2024-04-24T08:09:49.127Z,101017.06
2024-04-24T08:12:15.908Z,101009.19
2024-04-24T08:14:42.778Z,101016.34
2024-04-24T08:17:09.431Z,101012.97
2024-04-24T08:19:38.957Z,101003.91
2024-04-24T08:22:05.644Z,100998.63
2024-04-24T08:24:32.275Z,100995.63
2024-04-24T08:26:58.907Z,100988.84
2024-04-24T08:29:30.843Z,100991.50
2024-04-24T08:31:58.816Z,100994.13
2024-04-24T08:34:26.955Z,100994.50
2024-04-24T08:36:53.617Z,100985.47
2024-04-24T08:39:20.329Z,100985.06
2024-04-24T08:41:46.964Z,100991.06
2024-04-24T08:44:14.424Z,100985.78
2024-04-24T08:46:43.875Z,100985.03
2024-04-24T08:49:14.269Z,100984.69
2024-04-24T08:51:42.357Z,100979.03
2024-04-24T08:54:13.515Z,100977.16
2024-04-24T08:56:45.056Z,100981.28
2024-04-24T08:59:20.747Z,100973.78
2024-04-24T09:02:00.597Z,100988.44
2024-04-24T09:04:29.037Z,100981.28
2024-04-24T09:07:03.032Z,100975.28
2024-04-24T09:09:30.394Z,100968.88
2024-04-24T09:12:08.535Z,100976.03
2024-04-24T09:14:35.558Z,100969.25
2024-04-24T09:17:03.919Z,100960.97
2024-04-24T09:19:30.703Z,100964.38
2024-04-24T09:21:57.370Z,100962.50
2024-04-24T09:24:24.040Z,100957.97
2024-04-24T09:26:51.295Z,100957.97
2024-04-24T09:29:18.854Z,100957.97
2024-04-24T09:31:45.859Z,100956.47
2024-04-24T09:34:12.588Z,100956.44
2024-04-24T09:36:43.030Z,100951.56
2024-04-24T09:39:14.896Z,100947.06
2024-04-24T09:41:50.395Z,100949.31
2024-04-24T09:44:19.970Z,100953.50
2024-04-24T09:46:53.824Z,100952.69
2024-04-24T09:49:22.063Z,100951.56
2024-04-24T09:51:50.850Z,100937.66
2024-04-24T09:54:19.035Z,100946.31
2024-04-24T09:56:49.107Z,100947.06
2024-04-24T09:59:17.037Z,100952.75
2024-04-24T10:01:54.854Z,100953.47
2024-04-24T10:04:29.699Z,100954.19
2024-04-24T10:07:02.218Z,100946.66
2024-04-24T10:09:34.057Z,100929.38
2024-04-24T10:12:05.838Z,100926.34
2024-04-24T10:14:39.972Z,100918.78
2024-04-24T10:17:07.504Z,100922.97
2024-04-24T10:19:37.442Z,100934.25
2024-04-24T10:22:04.854Z,100951.94
2024-04-24T10:24:34.066Z,100975.28
2024-04-24T10:27:01.995Z,100971.50
2024-04-24T10:29:30.532Z,100965.88
2024-04-24T10:32:01.200Z,100963.22
2024-04-24T10:34:29.104Z,100955.72
2024-04-24T10:36:56.324Z,100956.84
2024-04-24T10:39:22.937Z,100947.06
2024-04-24T10:41:49.670Z,100949.69
2024-04-24T10:44:16.888Z,100944.03
2024-04-24T10:46:44.072Z,100937.59
2024-04-24T10:49:10.782Z,100931.22
2024-04-24T10:51:45.105Z,100922.19
2024-04-24T10:54:11.661Z,100938.38
2024-04-24T10:56:42.108Z,100944.78
2024-04-24T10:59:08.998Z,100944.41
2024-04-24T11:01:43.046Z,100934.22
2024-04-24T11:04:18.263Z,100927.47
2024-04-24T11:06:45.767Z,100921.84
2024-04-24T11:09:12.474Z,100916.94
2024-04-24T11:11:39.471Z,100922.19
2024-04-24T11:14:10.420Z,100919.22
2024-04-24T11:16:39.008Z,100916.19
2024-04-24T11:19:05.714Z,100916.59
2024-04-24T11:21:32.314Z,100919.22
2024-04-24T11:23:59.547Z,100916.59
2024-04-24T11:26:31.457Z,100912.81
2024-04-24T11:29:06.363Z,100913.56
2024-04-24T11:31:44.167Z,100913.56
2024-04-24T11:34:12.566Z,100912.81
2024-04-24T11:36:40.326Z,100909.06
2024-04-24T11:39:07.712Z,100907.56
2024-04-24T11:41:37.739Z,100904.53
2024-04-24T11:44:05.863Z,100904.94
2024-04-24T11:46:32.792Z,100900.81
2024-04-24T11:49:02.205Z,100893.66
2024-04-24T11:51:29.219Z,100896.69
2024-04-24T11:53:56.694Z,100891.41
2024-04-24T11:56:24.598Z,100888.78
2024-04-24T11:58:51.495Z,100886.91
2024-04-24T12:01:19.487Z,100886.16
2024-04-24T12:03:47.840Z,100894.81
2024-04-24T12:06:14.601Z,100907.59
2024-04-24T12:08:42.303Z,100938.44
2024-04-24T12:11:09.114Z,100916.63
2024-04-24T12:13:36.124Z,100920.00
2024-04-24T12:16:04.391Z,100919.25
2024-04-24T12:18:32.122Z,100913.25
2024-04-24T12:21:01.883Z,100906.47
2024-04-24T12:23:31.674Z,100902.69
2024-04-24T12:26:01.294Z,100900.06
2024-04-24T12:28:27.904Z,100891.41
2024-04-24T12:30:55.577Z,100887.25
2024-04-24T12:33:23.125Z,100899.28
2024-04-24T12:35:49.733Z,100900.41
2024-04-24T12:38:16.369Z,100906.41
2024-04-24T12:40:42.928Z,100897.00
2024-04-24T12:43:09.486Z,100885.72
2024-04-24T12:45:36.451Z,100888.75
2024-04-24T12:48:03.424Z,100894.38
2024-04-24T12:50:30.378Z,100898.94
2024-04-24T12:52:57.110Z,100897.44
2024-04-24T12:55:23.723Z,100885.75
2024-04-24T12:57:50.479Z,100896.28
2024-04-24T13:00:20.163Z,100885.75
2024-04-24T13:02:47.662Z,100904.56
2024-04-24T13:05:14.645Z,100902.31
2024-04-24T13:07:41.252Z,100897.44
2024-04-24T13:10:08.284Z,100889.53
2024-04-24T13:12:36.621Z,100888.78
2024-04-24T13:15:04.142Z,100891.03
2024-04-24T13:17:30.881Z,100892.50
2024-04-24T13:19:57.513Z,100882.72
2024-04-24T13:22:24.238Z,100883.84
2024-04-24T13:24:51.891Z,100878.97
2024-04-24T13:27:18.524Z,100880.50
2024-04-24T13:29:45.110Z,100871.44
2024-04-24T13:32:11.776Z,100878.22
2024-04-24T13:34:38.364Z,100879.34
2024-04-24T13:37:04.931Z,100880.09
2024-04-24T13:39:33.515Z,100886.84
2024-04-24T13:42:00.252Z,100908.31
2024-04-24T13:44:26.847Z,100915.88
2024-04-24T13:46:53.758Z,100906.47
2024-04-24T13:49:20.382Z,100901.56
2024-04-24T13:51:47.027Z,100897.78
2024-04-24T13:54:15.275Z,100892.50
2024-04-24T13:56:43.060Z,100897.03
2024-04-24T13:59:11.909Z,100898.53
2024-04-24T14:01:38.630Z,100891.75
2024-04-24T14:04:05.493Z,100897.03
2024-04-24T14:06:32.186Z,100897.81
2024-04-24T14:08:58.785Z,100890.28
2024-04-24T14:11:26.190Z,100899.31
2024-04-24T14:13:52.950Z,100892.19
2024-04-24T14:16:20.879Z,100886.16
2024-04-24T14:18:47.939Z,100888.03
2024-04-24T14:21:18.547Z,100891.81
2024-04-24T14:23:45.643Z,100893.31
2024-04-24T14:26:12.286Z,100897.81
2024-04-24T14:28:39.834Z,100884.28
2024-04-24T14:31:06.484Z,100882.78
2024-04-24T14:33:34.499Z,100892.19
2024-04-24T14:36:01.117Z,100887.28
2024-04-24T14:38:27.794Z,100892.56
2024-04-24T14:40:57.136Z,100889.53
2024-04-24T14:43:24.070Z,100890.34
2024-04-24T14:45:50.739Z,100882.06
2024-04-24T14:48:17.498Z,100882.06
2024-04-24T14:50:46.025Z,100891.84
2024-04-24T14:53:12.713Z,100885.41
2024-04-24T14:55:42.186Z,100918.50
2024-04-24T14:58:09.158Z,100911.38
2024-04-24T15:00:35.784Z,100915.53
2024-04-24T15:03:02.475Z,100921.94
2024-04-24T15:05:29.166Z,100916.28
2024-04-24T15:07:55.793Z,100920.03
2024-04-24T15:10:22.686Z,100913.66
2024-04-24T15:12:49.338Z,100914.41
2024-04-24T15:15:15.967Z,100913.66
2024-04-24T15:17:42.826Z,100917.81
2024-04-24T15:20:09.624Z,100919.72
2024-04-24T15:22:36.288Z,100924.97
2024-04-24T15:25:02.917Z,100915.19
2024-04-24T15:27:29.858Z,100912.97
2024-04-24T15:29:56.403Z,100909.22
2024-04-24T15:32:23.091Z,100891.91
2024-04-24T15:34:51.183Z,100901.63
2024-04-24T15:37:17.923Z,100899.97
2024-04-24T15:39:44.469Z,100908.44
2024-04-24T15:42:11.493Z,100912.88
2024-04-24T15:44:38.172Z,100908.66
2024-04-24T15:47:05.074Z,100907.09
2024-04-24T15:49:31.740Z,100904.72
2024-04-24T15:52:00.090Z,100913.47
2024-04-24T15:54:26.803Z,100909.75
2024-04-24T15:56:53.460Z,100915.81
2024-04-24T15:59:20.082Z,100912.81
2024-04-24T16:01:46.739Z,100918.13
2024-04-24T16:04:13.379Z,100915.13
2024-04-24T16:06:40.050Z,100904.28
2024-04-24T16:09:06.649Z,100895.25
2024-04-24T16:11:33.293Z,100893.09
2024-04-24T16:14:01.637Z,100900.63
2024-04-24T16:16:30.637Z,100894.59
2024-04-24T16:18:57.507Z,100904.75
2024-04-24T16:21:26.464Z,100909.97
2024-04-24T16:23:53.035Z,100911.88
2024-04-24T16:26:19.680Z,100913.41
2024-04-24T16:28:46.336Z,100910.78
2024-04-24T16:31:12.964Z,100908.19
2024-04-24T16:33:39.649Z,100913.47
2024-04-24T16:36:09.230Z,100915.72
2024-04-24T16:38:36.006Z,100904.75
2024-04-24T16:41:07.804Z,100906.59
2024-04-24T16:43:34.842Z,100909.63
2024-04-24T16:46:01.630Z,100906.28
2024-04-24T16:48:28.691Z,100907.41
2024-04-24T16:50:55.999Z,100912.28
2024-04-24T16:53:22.641Z,100908.94
2024-04-24T16:55:50.943Z,100910.88
2024-04-24T16:58:17.553Z,100904.84
2024-04-24T17:00:46.298Z,100907.88
2024-04-24T17:03:13.066Z,100905.25
2024-04-24T17:05:40.443Z,100901.19
2024-04-24T17:08:07.585Z,100903.50
2024-04-24T17:10:34.506Z,100897.88
2024-04-24T17:13:01.118Z,100903.50
2024-04-24T17:15:27.791Z,100899.41
2024-04-24T17:17:54.561Z,100890.41
2024-04-24T17:20:21.286Z,100898.72
2024-04-24T17:22:49.299Z,100900.94
2024-04-24T17:25:16.512Z,100916.03
2024-04-24T17:27:43.149Z,100914.88
2024-04-24T17:30:13.139Z,100915.66
2024-04-24T17:32:40.638Z,100919.03
2024-04-24T17:35:07.595Z,100917.53
2024-04-24T17:37:34.538Z,100911.50
2024-04-24T17:40:01.148Z,100919.41
2024-04-24T17:42:27.784Z,100920.88
2024-04-24T17:44:54.407Z,100911.84
2024-04-24T17:47:24.243Z,100911.09
2024-04-24T17:49:54.886Z,100907.00
2024-04-24T17:52:22.150Z,100897.22
2024-04-24T17:54:48.740Z,100910.38
2024-04-24T17:57:15.318Z,100906.63
2024-04-24T17:59:41.942Z,100915.66
2024-04-24T18:02:08.588Z,100917.53
2024-04-24T18:04:35.235Z,100921.66
2024-04-24T18:07:01.872Z,100925.78
2024-04-24T18:09:31.943Z,100932.56
2024-04-24T18:11:59.384Z,100930.31
2024-04-24T18:14:26.215Z,100928.44
2024-04-24T18:16:53.449Z,100931.81
2024-04-24T18:19:20.137Z,100936.69
2024-04-24T18:21:46.796Z,100934.81
2024-04-24T18:24:13.728Z,100938.56
2024-04-24T18:26:41.212Z,100934.81
2024-04-24T18:29:07.973Z,100930.69
2024-04-24T18:31:34.638Z,100934.47
2024-04-24T18:34:01.316Z,100937.09
2024-04-24T18:36:27.973Z,100946.13
2024-04-24T18:38:55.670Z,100945.75
2024-04-24T18:41:22.485Z,100953.66
2024-04-24T18:43:49.622Z,100958.91
2024-04-24T18:46:17.274Z,100946.13
2024-04-24T18:48:46.381Z,100949.88
2024-04-24T18:51:13.271Z,100944.63
2024-04-24T18:53:39.958Z,100958.16
2024-04-24T18:56:07.909Z,100958.16
2024-04-24T18:58:37.383Z,100953.66
2024-04-24T19:01:04.196Z,100958.94
2024-04-24T19:03:31.152Z,100965.69
2024-04-24T19:05:57.872Z,100958.19
2024-04-24T19:08:24.470Z,100964.19
2024-04-24T19:10:51.113Z,100964.94
2024-04-24T19:13:19.184Z,100966.06
2024-04-24T19:15:45.857Z,100969.06
2024-04-24T19:18:13.095Z,100963.44
2024-04-24T19:20:42.109Z,100972.84
2024-04-24T19:23:09.736Z,100977.69
2024-04-24T19:25:36.885Z,100978.44
2024-04-24T19:28:04.670Z,100970.19
2024-04-24T19:30:31.819Z,100979.97
2024-04-24T19:32:59.430Z,100968.31
2024-04-24T19:35:26.186Z,100974.72
2024-04-24T19:37:53.090Z,100976.59
2024-04-24T19:40:21.132Z,100972.44
2024-04-24T19:42:48.288Z,100975.84
2024-04-24T19:45:14.988Z,100975.84
2024-04-24T19:47:42.067Z,100981.13
2024-04-24T19:50:09.007Z,100982.22
2024-04-24T19:52:38.717Z,100983.00
2024-04-24T19:55:07.248Z,100990.50
2024-04-24T19:57:33.881Z,100992.75
2024-04-24T20:00:00.664Z,100996.13
2024-04-24T20:02:28.895Z,100995.41
2024-04-24T20:04:55.769Z,100999.16
2024-04-24T20:07:22.379Z,100996.16
2024-04-24T20:09:50.113Z,100995.03
2024-04-24T20:12:16.744Z,100993.16
2024-04-24T20:14:43.607Z,100985.25
2024-04-24T20:17:10.607Z,100988.25
2024-04-24T20:19:37.259Z,100984.50
2024-04-24T20:22:03.849Z,100986.00
2024-04-24T20:24:33.315Z,100990.53
2024-04-24T20:26:59.909Z,100977.75
2024-04-24T20:29:26.542Z,100984.91
2024-04-24T20:31:53.218Z,100976.25
2024-04-24T20:34:19.794Z,100979.63
2024-04-24T20:36:46.388Z,100984.16
2024-04-24T20:39:13.005Z,100980.38
2024-04-24T20:41:43.251Z,100977.75
2024-04-24T20:44:09.918Z,100980.00
2024-04-24T20:46:42.037Z,100984.13
2024-04-24T20:49:09.542Z,100985.63
2024-04-24T20:51:39.730Z,100984.88
2024-04-24T20:54:10.268Z,101011.19
2024-04-24T20:56:37.560Z,101005.16
2024-04-24T20:59:07.318Z,100998.78
2024-04-24T21:01:33.916Z,100996.56
2024-04-24T21:04:00.476Z,101001.81
2024-04-24T21:06:27.109Z,101002.94
2024-04-24T21:08:53.757Z,100999.56
2024-04-24T21:11:21.598Z,100995.41
2024-04-24T21:13:48.823Z,100989.78
2024-04-24T21:16:18.193Z,100990.53
2024-04-24T21:18:44.966Z,100987.16
2024-04-24T21:21:12.455Z,100990.53
2024-04-24T21:23:39.324Z,100975.88
2024-04-24T21:26:06.040Z,100974.00
2024-04-24T21:28:39.018Z,100973.63
2024-04-24T21:31:05.911Z,100971.00
2024-04-24T21:33:33.408Z,100974.38
2024-04-24T21:36:00.466Z,100970.63
2024-04-24T21:38:32.343Z,100971.00
2024-04-24T21:40:59.153Z,100971.00
2024-04-24T21:43:27.032Z,100973.25
2024-04-24T21:45:54.734Z,100971.00
2024-04-24T21:48:21.512Z,100965.72
2024-04-24T21:50:50.028Z,100969.50
2024-04-24T21:53:17.225Z,100961.97
2024-04-24T21:55:43.898Z,100967.59
2024-04-24T21:58:10.521Z,100963.84
2024-04-24T22:00:37.156Z,100961.22
2024-04-24T22:03:04.759Z,100964.22
2024-04-24T22:05:33.912Z,100955.22
2024-04-24T22:08:00.563Z,100960.47
2024-04-24T22:10:27.221Z,100954.47
2024-04-24T22:12:53.893Z,100951.06
2024-04-24T22:15:20.448Z,100953.34
2024-04-24T22:17:47.177Z,100958.22
2024-04-24T22:20:14.972Z,100957.47
2024-04-24T22:22:42.264Z,100954.84
2024-04-24T22:25:08.854Z,100953.72
2024-04-24T22:27:35.489Z,100958.97
2024-04-24T22:30:02.228Z,100950.69
2024-04-24T22:32:28.958Z,100952.94
2024-04-24T22:34:55.623Z,100945.06
2024-04-24T22:37:22.266Z,100948.44
2024-04-24T22:39:48.970Z,100943.56
2024-04-24T22:42:15.535Z,100937.88
2024-04-24T22:44:42.107Z,100945.06
2024-04-24T22:47:08.702Z,100949.16
2024-04-24T22:49:35.453Z,100945.81
2024-04-24T22:52:02.124Z,100949.53
2024-04-24T22:54:28.749Z,100945.78
2024-04-24T22:56:55.536Z,100952.94
2024-04-24T22:59:22.291Z,100947.66
2024-04-24T23:01:51.893Z,100942.75
2024-04-24T23:04:18.541Z,100938.66
2024-04-24T23:06:45.185Z,100932.97
2024-04-24T23:09:11.910Z,100939.75
2024-04-24T23:11:38.554Z,100938.63
2024-04-24T23:14:05.203Z,100946.16
2024-04-24T23:16:31.968Z,100937.13
2024-04-24T23:18:58.600Z,100935.25
2024-04-24T23:21:25.200Z,100938.63
2024-04-24T23:23:52.299Z,100940.13
2024-04-24T23:26:20.789Z,100940.88
2024-04-24T23:28:47.428Z,100944.25
2024-04-24T23:31:17.195Z,100943.50
2024-04-24T23:33:45.475Z,100937.13
2024-04-24T23:36:12.200Z,100936.38
2024-04-24T23:38:38.827Z,100933.38
2024-04-24T23:41:05.669Z,100924.31
2024-04-24T23:43:32.331Z,100937.09
2024-04-24T23:46:00.900Z,100916.03
2024-04-24T23:48:29.205Z,100914.91
2024-04-24T23:50:56.301Z,100913.03
2024-04-24T23:53:22.935Z,100908.56
2024-04-24T23:55:49.530Z,100906.69
2024-04-24T23:58:16.192Z,100901.75
